Time;durP1;ratioP1;P1;durP2;ratioP2;P2;SDS_P1;SDS_P2;PMS_P1;PMS_P2;Temp;Humidity;BMP_temperature;BMP_pressure;BME280_temperature;BME280_humidity;BME280_pressure;Samples;Min_cycle;Max_cycle;Signal;HPM_P1;HPM_P2
2022/09/13 00:01:08;;;;;;;3.63;3.10;;;18.20;99.90;;;;;;5072992;28;20234;-62
2022/09/13 00:03:56;;;;;;;3.37;2.77;;;18.20;99.90;;;;;;5069056;28;20226;-62
2022/09/13 00:06:24;;;;;;;3.73;3.17;;;18.10;99.90;;;;;;5073126;28;20207;-62
2022/09/13 00:08:55;;;;;;;3.13;3.00;;;18.20;99.90;;;;;;5073054;28;20238;-62
2022/09/13 00:11:25;;;;;;;3.70;3.50;;;18.10;99.90;;;;;;5071380;28;20314;-63
2022/09/13 00:13:54;;;;;;;4.70;3.30;;;18.20;99.90;;;;;;5072538;28;20554;-62
2022/09/13 00:16:25;;;;;;;2.77;2.67;;;18.20;99.90;;;;;;5072649;28;20195;-62
2022/09/13 00:18:54;;;;;;;3.70;3.10;;;18.20;99.90;;;;;;5072683;28;20200;-63
2022/09/13 00:21:26;;;;;;;3.93;3.10;;;18.20;99.90;;;;;;5073019;28;20196;-62
2022/09/13 00:23:55;;;;;;;3.73;3.30;;;18.20;99.90;;;;;;5057329;28;20228;-62
2022/09/13 00:26:26;;;;;;;4.50;3.43;;;18.20;99.90;;;;;;5052189;28;20224;-62
2022/09/13 00:28:56;;;;;;;3.53;3.30;;;18.20;99.90;;;;;;5072654;28;20199;-62
2022/09/13 00:31:26;;;;;;;3.63;3.30;;;18.20;99.90;;;;;;5072854;28;20204;-62
2022/09/13 00:33:55;;;;;;;5.13;3.90;;;18.20;99.90;;;;;;5052040;28;20239;-62
2022/09/13 00:36:25;;;;;;;5.10;3.60;;;18.30;99.90;;;;;;5053119;28;20203;-62
2022/09/13 00:38:53;;;;;;;3.83;3.53;;;18.30;99.90;;;;;;5069141;28;20189;-62
2022/09/13 00:41:21;;;;;;;4.27;3.47;;;18.30;99.90;;;;;;5072806;28;20196;-62
2022/09/13 00:43:52;;;;;;;4.10;3.70;;;18.20;99.90;;;;;;5072198;28;20227;-62
2022/09/13 00:46:32;;;;;;;3.83;3.57;;;18.20;99.90;;;;;;5071337;28;20215;-63
2022/09/13 00:49:04;;;;;;;3.47;3.27;;;18.20;99.90;;;;;;5072684;28;20660;-62
2022/09/13 00:51:34;;;;;;;4.03;3.73;;;18.20;99.90;;;;;;5077148;28;20191;-62
2022/09/13 00:54:04;;;;;;;3.40;3.10;;;18.20;99.90;;;;;;5082039;28;20653;-63
2022/09/13 00:56:37;;;;;;;3.63;3.43;;;18.20;99.90;;;;;;5064369;28;20192;-62
2022/09/13 00:59:09;;;;;;;4.03;3.70;;;18.20;99.90;;;;;;5073108;28;20557;-62
2022/09/13 01:01:44;;;;;;;3.80;3.53;;;18.20;99.90;;;;;;5076040;28;20549;-62
2022/09/13 01:04:13;;;;;;;4.13;3.80;;;18.20;99.90;;;;;;5075847;28;20195;-62
2022/09/13 01:06:45;;;;;;;3.57;3.37;;;18.20;99.90;;;;;;5084943;28;20207;-62
2022/09/13 01:09:14;;;;;;;3.87;3.57;;;18.10;99.90;;;;;;5081890;28;20227;-62
2022/09/13 01:11:49;;;;;;;4.77;3.60;;;18.10;99.90;;;;;;5069541;28;20567;-62
2022/09/13 01:14:19;;;;;;;3.90;3.70;;;18.10;99.90;;;;;;5076118;28;20654;-62
2022/09/13 01:16:48;;;;;;;4.27;3.87;;;18.10;99.90;;;;;;5057996;28;20193;-63
2022/09/13 01:19:17;;;;;;;6.13;4.00;;;18.10;99.90;;;;;;5060700;28;20211;-62
2022/09/13 01:22:21;;;;;;;4.43;3.73;;;18.10;99.90;;;;;;5055012;28;20201;-62
2022/09/13 01:25:35;;;;;;;3.60;3.30;;;18.10;99.90;;;;;;5068770;28;20207;-62
2022/09/13 01:28:30;;;;;;;3.50;3.30;;;18.10;99.90;;;;;;5073856;28;20191;-62
2022/09/13 01:31:07;;;;;;;4.53;3.70;;;18.00;99.90;;;;;;5078414;28;20206;-63
2022/09/13 01:33:48;;;;;;;3.97;3.73;;;18.00;99.90;;;;;;5095839;28;20187;-62
2022/09/13 01:36:42;;;;;;;4.97;3.90;;;18.00;99.90;;;;;;5055591;28;20547;-62
2022/09/13 01:39:15;;;;;;;4.97;3.40;;;17.90;99.90;;;;;;5055435;28;20189;-62
2022/09/13 01:42:03;;;;;;;3.60;3.40;;;17.90;99.90;;;;;;5060677;28;20192;-63
2022/09/13 01:44:45;;;;;;;3.40;3.20;;;17.90;99.90;;;;;;5075229;28;20196;-62
2022/09/13 01:47:25;;;;;;;4.17;3.70;;;17.90;99.90;;;;;;5074010;28;20218;-62
2022/09/13 01:50:04;;;;;;;3.90;3.50;;;17.80;99.90;;;;;;5084112;28;20192;-62
2022/09/13 01:52:41;;;;;;;5.17;3.97;;;17.80;99.90;;;;;;5055212;28;20242;-62
2022/09/13 01:55:26;;;;;;;4.40;3.97;;;17.70;99.90;;;;;;5055278;28;20195;-62
2022/09/13 01:58:02;;;;;;;3.70;3.40;;;17.70;99.90;;;;;;5055157;28;20195;-62
2022/09/13 02:00:37;;;;;;;5.57;4.30;;;17.70;99.90;;;;;;5057380;28;20196;-62
2022/09/13 02:03:39;;;;;;;4.20;3.80;;;17.70;99.90;;;;;;5074947;28;20194;-62
2022/09/13 02:06:29;;;;;;;5.37;3.37;;;17.70;99.90;;;;;;5082535;28;20680;-62
2022/09/13 02:09:03;;;;;;;3.80;3.43;;;17.70;99.90;;;;;;5095468;28;20191;-62
2022/09/13 02:11:33;;;;;;;5.27;3.70;;;17.70;99.90;;;;;;5076644;28;20232;-62
2022/09/13 02:14:06;;;;;;;3.80;3.60;;;17.70;99.90;;;;;;5074936;28;20188;-63
2022/09/13 02:16:39;;;;;;;3.87;3.60;;;17.70;99.90;;;;;;5073684;28;20188;-62
2022/09/13 02:19:13;;;;;;;3.87;3.53;;;17.60;99.90;;;;;;5074533;28;20184;-62
2022/09/13 02:21:46;;;;;;;5.53;3.50;;;17.60;99.90;;;;;;5083734;28;20646;-62
2022/09/13 02:24:18;;;;;;;4.23;3.83;;;17.60;99.90;;;;;;5093733;28;20195;-62
2022/09/13 02:26:51;;;;;;;4.10;3.80;;;17.60;99.90;;;;;;5074953;28;20212;-62
2022/09/13 02:29:22;;;;;;;7.23;3.60;;;17.50;99.90;;;;;;5074366;28;20181;-62
2022/09/13 02:31:55;;;;;;;4.20;3.63;;;17.50;99.90;;;;;;5074433;28;20546;-62
2022/09/13 02:34:31;;;;;;;4.33;3.60;;;17.50;99.90;;;;;;5074461;28;20195;-62
2022/09/13 02:37:01;;;;;;;5.13;3.93;;;17.50;99.90;;;;;;5074476;28;20183;-62
2022/09/13 02:39:34;;;;;;;3.50;3.30;;;17.40;99.90;;;;;;5073027;28;20654;-62
2022/09/13 02:42:08;;;;;;;3.77;3.47;;;17.40;99.90;;;;;;5065755;28;20578;-62
2022/09/13 02:44:43;;;;;;;4.90;4.03;;;17.40;99.90;;;;;;5054243;28;20192;-62
2022/09/13 02:47:35;;;;;;;4.57;4.07;;;17.50;99.90;;;;;;5054299;28;20747;-62
2022/09/13 02:50:19;;;;;;;4.13;3.93;;;17.50;99.90;;;;;;5072678;28;20187;-62
2022/09/13 02:52:53;;;;;;;4.17;3.90;;;17.50;99.90;;;;;;5080156;28;20533;-62
2022/09/13 02:55:27;;;;;;;6.33;4.03;;;17.50;99.90;;;;;;5091653;28;20510;-63
2022/09/13 02:58:03;;;;;;;4.60;4.20;;;17.50;99.90;;;;;;5073997;28;20187;-62
2022/09/13 03:00:31;;;;;;;4.87;4.07;;;17.50;99.90;;;;;;5072815;28;20196;-62
2022/09/13 03:03:44;;;;;;;6.03;4.30;;;17.50;99.90;;;;;;5069992;28;20206;-62
2022/09/13 03:06:22;;;;;;;4.63;4.33;;;17.50;99.90;;;;;;5068363;28;20212;-62
2022/09/13 03:09:12;;;;;;;4.47;4.17;;;17.70;99.90;;;;;;5053954;28;20188;-63
2022/09/13 03:12:04;;;;;;;4.57;4.17;;;17.60;99.90;;;;;;5053918;28;20577;-62
2022/09/13 03:14:41;;;;;;;5.40;4.40;;;17.60;99.90;;;;;;5054002;28;20178;-62
2022/09/13 03:17:22;;;;;;;5.37;4.23;;;17.60;99.90;;;;;;5067912;28;20192;-62
2022/09/13 03:20:09;;;;;;;4.03;3.73;;;17.60;99.90;;;;;;5069076;28;20195;-62
2022/09/13 03:23:19;;;;;;;5.67;3.87;;;17.60;99.90;;;;;;5062037;28;20643;-62
2022/09/13 03:26:03;;;;;;;4.97;3.87;;;17.60;99.90;;;;;;5070296;28;20217;-62
2022/09/13 03:28:39;;;;;;;4.30;3.90;;;17.60;99.90;;;;;;5089147;28;20191;-62
2022/09/13 03:31:13;;;;;;;5.13;3.80;;;17.60;99.90;;;;;;5075547;28;20249;-62
2022/09/13 03:33:54;;;;;;;5.00;3.80;;;17.60;99.90;;;;;;5080726;28;20317;-62
2022/09/13 03:36:27;;;;;;;4.00;3.70;;;17.60;99.90;;;;;;5073528;28;20191;-62
2022/09/13 03:39:04;;;;;;;4.70;3.93;;;17.60;99.90;;;;;;5073320;28;20203;-62
2022/09/13 03:41:36;;;;;;;4.73;3.70;;;17.60;99.90;;;;;;5072010;28;20192;-62
2022/09/13 03:44:08;;;;;;;4.97;3.60;;;17.50;99.90;;;;;;5073235;28;20206;-62
2022/09/13 03:46:41;;;;;;;3.80;3.57;;;17.50;99.90;;;;;;5073324;28;20566;-62
2022/09/13 03:49:12;;;;;;;3.90;3.60;;;17.50;99.90;;;;;;5072367;28;20279;-62
2022/09/13 03:51:43;;;;;;;3.63;3.40;;;17.50;99.90;;;;;;5073232;28;20287;-62
2022/09/13 03:54:19;;;;;;;4.23;3.73;;;17.50;99.90;;;;;;5072352;28;20662;-62
2022/09/13 03:57:09;;;;;;;4.03;3.70;;;17.50;99.90;;;;;;5073383;28;20184;-62
2022/09/13 03:59:41;;;;;;;18.97;4.70;;;17.50;99.90;;;;;;5063023;28;20195;-62
2022/09/13 04:02:10;;;;;;;7.93;4.10;;;17.50;99.90;;;;;;5078020;28;20661;-62
2022/09/13 04:04:45;;;;;;;12.80;4.33;;;17.50;99.90;;;;;;5075684;28;20187;-62
2022/09/13 04:07:17;;;;;;;11.60;4.37;;;17.50;99.90;;;;;;5072982;28;20207;-62
2022/09/13 04:09:48;;;;;;;5.67;4.37;;;17.50;99.90;;;;;;5071390;28;20192;-62
2022/09/13 04:12:18;;;;;;;4.67;4.20;;;17.60;99.90;;;;;;5032925;28;20193;-62
2022/09/13 04:14:46;;;;;;;6.10;4.00;;;17.50;99.90;;;;;;5033459;28;20208;-62
2022/09/13 04:17:15;;;;;;;7.83;4.30;;;17.50;99.90;;;;;;5027998;28;20251;-62
2022/09/13 04:19:45;;;;;;;10.37;3.97;;;17.50;99.90;;;;;;5048420;28;20669;-62
2022/09/13 04:22:14;;;;;;;17.33;4.40;;;17.50;99.90;;;;;;5015217;28;20258;-62
2022/09/13 04:24:43;;;;;;;15.13;4.63;;;17.50;99.90;;;;;;5065011;28;20189;-62
2022/09/13 04:27:13;;;;;;;8.33;3.87;;;17.50;99.90;;;;;;5022950;28;20221;-62
2022/09/13 04:29:41;;;;;;;11.90;4.07;;;17.60;99.90;;;;;;5033567;28;20291;-62
2022/09/13 04:32:10;;;;;;;13.17;4.80;;;17.50;99.90;;;;;;5042780;28;20207;-62
2022/09/13 04:34:39;;;;;;;7.60;4.23;;;17.50;99.90;;;;;;5042153;28;20193;-63
2022/09/13 04:37:08;;;;;;;12.93;4.30;;;17.50;99.90;;;;;;5036762;28;20192;-62
2022/09/13 04:39:36;;;;;;;9.70;4.17;;;17.50;99.90;;;;;;5036549;28;20205;-62
2022/09/13 04:42:06;;;;;;;5.30;4.07;;;17.50;99.90;;;;;;5035602;28;20209;-62
2022/09/13 04:44:36;;;;;;;6.03;4.13;;;17.50;99.90;;;;;;5041825;28;20197;-62
2022/09/13 04:47:06;;;;;;;8.20;4.30;;;17.50;99.90;;;;;;5054333;28;20204;-62
2022/09/13 04:49:34;;;;;;;4.20;3.90;;;17.50;99.90;;;;;;5036262;28;20204;-62
2022/09/13 04:52:03;;;;;;;11.60;4.33;;;17.50;99.90;;;;;;5028393;28;20194;-62
2022/09/13 04:54:36;;;;;;;3.77;3.47;;;17.50;99.90;;;;;;5022343;28;20192;-62
2022/09/13 04:57:05;;;;;;;6.23;4.53;;;17.50;99.90;;;;;;5036157;28;20186;-62
2022/09/13 04:59:34;;;;;;;6.63;3.70;;;17.50;99.90;;;;;;5036013;28;20196;-62
2022/09/13 05:02:02;;;;;;;7.60;3.80;;;17.50;99.90;;;;;;5036333;28;20212;-62
2022/09/13 05:04:37;;;;;;;6.53;4.20;;;17.50;99.90;;;;;;5032972;28;20221;-62
2022/09/13 05:07:05;;;;;;;5.63;4.27;;;17.50;99.90;;;;;;5031711;28;20237;-62
2022/09/13 05:09:35;;;;;;;5.13;3.90;;;17.50;99.90;;;;;;5017467;28;20200;-62
2022/09/13 05:12:04;;;;;;;6.07;3.70;;;17.50;99.90;;;;;;5073154;28;20271;-62
2022/09/13 05:14:33;;;;;;;4.43;4.00;;;17.50;99.90;;;;;;5086746;28;20195;-62
2022/09/13 05:17:03;;;;;;;4.37;3.80;;;17.50;99.90;;;;;;5080176;28;20278;-62
2022/09/13 05:19:35;;;;;;;5.33;4.17;;;17.60;99.90;;;;;;5075738;28;20199;-62
2022/09/13 05:22:04;;;;;;;4.57;4.17;;;17.60;99.90;;;;;;5108409;28;20192;-63
2022/09/13 05:24:32;;;;;;;4.27;3.87;;;17.60;99.90;;;;;;5074683;28;20214;-62
2022/09/13 05:27:01;;;;;;;5.43;4.10;;;17.50;99.90;;;;;;5074615;28;20192;-62
2022/09/13 05:29:29;;;;;;;5.47;4.20;;;17.50;99.90;;;;;;5075286;28;20196;-62
2022/09/13 05:31:57;;;;;;;7.87;4.03;;;17.50;99.90;;;;;;5074451;28;20206;-62
2022/09/13 05:34:27;;;;;;;7.50;4.50;;;17.50;99.90;;;;;;5073940;28;20189;-62
2022/09/13 05:36:55;;;;;;;4.10;3.80;;;17.50;99.90;;;;;;5095472;28;20218;-62
2022/09/13 05:39:24;;;;;;;7.50;4.07;;;17.50;99.90;;;;;;5090847;28;20643;-62
2022/09/13 05:42:10;;;;;;;9.23;4.33;;;17.50;99.90;;;;;;5107880;28;20204;-62
2022/09/13 05:44:39;;;;;;;7.57;4.57;;;17.50;99.90;;;;;;5079166;28;20601;-62
2022/09/13 05:47:08;;;;;;;8.53;4.50;;;17.60;99.90;;;;;;5077960;28;20194;-62
2022/09/13 05:49:37;;;;;;;7.07;4.30;;;17.60;99.90;;;;;;5075270;28;20198;-62
2022/09/13 05:52:25;;;;;;;12.20;4.37;;;17.60;99.90;;;;;;5069699;28;20209;-62
2022/09/13 05:54:54;;;;;;;7.47;4.63;;;17.60;99.90;;;;;;5074321;28;20192;-62
2022/09/13 05:57:22;;;;;;;18.37;5.20;;;17.60;99.90;;;;;;5063199;28;20204;-62
2022/09/13 05:59:50;;;;;;;10.43;4.63;;;17.60;99.90;;;;;;5067769;28;20223;-62
2022/09/13 06:02:18;;;;;;;8.87;4.63;;;17.70;99.90;;;;;;5075369;28;20193;-62
2022/09/13 06:04:50;;;;;;;12.20;4.77;;;17.70;99.90;;;;;;5074016;28;20207;-62
2022/09/13 06:07:19;;;;;;;9.23;4.67;;;17.70;99.90;;;;;;5074852;28;20192;-62
2022/09/13 06:09:49;;;;;;;7.67;6.20;;;17.70;99.90;;;;;;5053450;28;20583;-62
2022/09/13 06:12:17;;;;;;;8.17;5.23;;;17.70;99.90;;;;;;5053841;28;20185;-62
2022/09/13 06:14:45;;;;;;;4.87;4.10;;;17.70;99.90;;;;;;5054754;28;20246;-62
2022/09/13 06:17:14;;;;;;;4.70;4.30;;;17.70;99.90;;;;;;5054869;28;20189;-62
2022/09/13 06:19:43;;;;;;;8.07;4.50;;;17.80;99.90;;;;;;5053345;28;20195;-62
2022/09/13 06:22:12;;;;;;;5.73;4.10;;;17.80;99.90;;;;;;5054975;28;20189;-62
2022/09/13 06:24:41;;;;;;;6.00;4.00;;;17.80;99.90;;;;;;5068156;28;20188;-62
2022/09/13 06:27:10;;;;;;;8.00;4.90;;;17.80;99.90;;;;;;5094647;28;20188;-62
2022/09/13 06:29:38;;;;;;;7.37;4.10;;;17.80;99.90;;;;;;5094682;28;20211;-63
2022/09/13 06:32:06;;;;;;;10.13;4.73;;;17.80;99.90;;;;;;5094979;28;20535;-62
2022/09/13 06:34:35;;;;;;;10.13;4.43;;;17.90;99.90;;;;;;5094808;28;20192;-63
2022/09/13 06:37:03;;;;;;;9.33;4.23;;;17.90;99.90;;;;;;5094466;28;20530;-62
2022/09/13 06:39:34;;;;;;;6.53;4.47;;;18.00;99.90;;;;;;5081470;28;20199;-62
2022/09/13 06:42:02;;;;;;;9.20;4.20;;;18.00;99.90;;;;;;5074390;28;20196;-61
2022/09/13 06:44:30;;;;;;;9.30;4.40;;;18.10;99.90;;;;;;5073489;28;20192;-62
2022/09/13 06:46:58;;;;;;;9.73;4.13;;;18.10;99.90;;;;;;5073859;28;20646;-62
2022/09/13 06:49:28;;;;;;;7.63;4.43;;;18.20;99.90;;;;;;5073828;28;20207;-63
2022/09/13 06:51:56;;;;;;;7.93;4.00;;;18.30;99.90;;;;;;5072223;28;20207;-62
2022/09/13 06:54:24;;;;;;;4.33;4.00;;;18.40;99.90;;;;;;5074002;28;20668;-62
2022/09/13 06:56:53;;;;;;;5.30;4.50;;;18.50;99.90;;;;;;5074223;28;20188;-62
2022/09/13 06:59:22;;;;;;;5.30;4.43;;;18.60;99.90;;;;;;5072902;28;20192;-62
2022/09/13 07:01:50;;;;;;;11.87;4.40;;;18.70;99.90;;;;;;5073877;28;20188;-62
2022/09/13 07:04:22;;;;;;;15.97;5.07;;;18.80;99.90;;;;;;5073736;28;20230;-62
2022/09/13 07:07:28;;;;;;;8.40;4.33;;;18.90;99.90;;;;;;5073642;28;20180;-62
2022/09/13 07:10:00;;;;;;;9.20;4.43;;;19.00;99.90;;;;;;5052544;28;20223;-62
2022/09/13 07:12:30;;;;;;;13.20;4.90;;;19.10;99.90;;;;;;5068671;28;20192;-62
2022/09/13 07:14:58;;;;;;;7.80;4.50;;;19.20;99.90;;;;;;5080728;28;20198;-62
2022/09/13 07:17:28;;;;;;;7.07;4.47;;;19.40;99.90;;;;;;5092979;28;20199;-62
2022/09/13 07:19:58;;;;;;;10.00;4.83;;;19.50;99.90;;;;;;5094102;28;20626;-62
2022/09/13 07:22:27;;;;;;;11.70;4.47;;;19.60;99.90;;;;;;5081441;28;20196;-62
2022/09/13 07:24:56;;;;;;;12.77;4.97;;;19.70;99.90;;;;;;5072668;28;20203;-62
2022/09/13 07:27:24;;;;;;;7.83;4.53;;;19.80;99.90;;;;;;5073473;28;20539;-62
2022/09/13 07:29:54;;;;;;;8.60;4.80;;;19.90;99.90;;;;;;5073438;28;20683;-62
2022/09/13 07:32:22;;;;;;;9.03;4.87;;;20.00;99.90;;;;;;5054607;28;20201;-62
2022/09/13 07:34:50;;;;;;;12.70;4.60;;;20.10;99.90;;;;;;5053471;28;20196;-62
2022/09/13 07:37:19;;;;;;;6.37;4.23;;;20.20;99.90;;;;;;5053293;28;20193;-62
2022/09/13 07:39:47;;;;;;;8.60;4.53;;;20.30;99.90;;;;;;5053551;28;20204;-62
2022/09/13 07:42:18;;;;;;;9.83;4.43;;;20.40;99.90;;;;;;5053232;28;20204;-62
2022/09/13 07:44:47;;;;;;;7.53;4.70;;;20.50;99.90;;;;;;5053672;28;20193;-61
2022/09/13 07:47:16;;;;;;;6.73;5.17;;;20.60;99.90;;;;;;5053660;28;20757;-62
2022/09/13 07:49:45;;;;;;;5.20;4.30;;;20.70;99.90;;;;;;5053275;28;20217;-62
2022/09/13 07:52:14;;;;;;;8.47;5.03;;;20.90;99.90;;;;;;5104771;28;20203;-62
2022/09/13 07:54:43;;;;;;;16.40;5.17;;;21.10;99.90;;;;;;5073275;28;20185;-62
2022/09/13 07:57:11;;;;;;;10.67;5.10;;;21.30;99.90;;;;;;5066967;28;20230;-62
2022/09/13 07:59:42;;;;;;;8.57;5.60;;;21.50;99.90;;;;;;5071876;28;20190;-62
2022/09/13 08:02:19;;;;;;;6.30;4.77;;;21.60;99.90;;;;;;5073035;28;20551;-61
2022/09/13 08:04:48;;;;;;;9.03;6.00;;;21.90;99.90;;;;;;5076005;28;20253;-62
2022/09/13 08:07:16;;;;;;;7.60;6.33;;;22.40;99.90;;;;;;5075959;28;20204;-61
2022/09/13 08:09:44;;;;;;;9.13;6.70;;;23.00;99.90;;;;;;5077086;28;20221;-61
2022/09/13 08:12:51;;;;;;;11.10;6.30;;;23.20;99.90;;;;;;5075789;28;20234;-61
2022/09/13 08:15:19;;;;;;;7.77;6.67;;;23.10;99.90;;;;;;5056081;28;20218;-61
2022/09/13 08:17:49;;;;;;;8.60;7.17;;;23.00;99.90;;;;;;5057012;28;20442;-61
2022/09/13 08:20:18;;;;;;;7.80;6.27;;;22.80;99.90;;;;;;5061024;28;20615;-62
2022/09/13 08:22:46;;;;;;;11.33;6.97;;;22.70;99.90;;;;;;5077174;28;20194;-61
2022/09/13 08:25:15;;;;;;;9.13;7.00;;;22.60;99.90;;;;;;5077261;28;20649;-61
2022/09/13 08:27:43;;;;;;;9.63;7.47;;;22.50;99.90;;;;;;5076946;28;20200;-61
2022/09/13 08:30:12;;;;;;;10.77;7.40;;;22.40;99.90;;;;;;5094805;28;20216;-62
2022/09/13 08:32:43;;;;;;;11.73;7.97;;;22.40;99.90;;;;;;5078829;28;20551;-62
2022/09/13 08:35:13;;;;;;;11.57;7.97;;;22.40;99.90;;;;;;5076516;28;20643;-61
2022/09/13 08:37:41;;;;;;;8.83;7.90;;;22.50;99.90;;;;;;5077258;28;20209;-61
2022/09/13 08:40:10;;;;;;;9.77;7.67;;;22.40;99.90;;;;;;5076764;28;20182;-62
2022/09/13 08:42:51;;;;;;;11.17;8.23;;;22.60;99.90;;;;;;5070142;28;20721;-61
2022/09/13 08:45:21;;;;;;;10.50;7.27;;;22.80;99.90;;;;;;5060861;28;20193;-62
2022/09/13 08:47:56;;;;;;;9.17;7.27;;;23.00;99.90;;;;;;5076464;28;20200;-61
2022/09/13 08:50:29;;;;;;;10.23;7.87;;;23.10;99.90;;;;;;5076699;28;20208;-62
2022/09/13 08:53:06;;;;;;;11.97;8.07;;;23.20;99.90;;;;;;5089293;28;20743;-62
2022/09/13 08:55:47;;;;;;;11.67;7.43;;;23.20;99.90;;;;;;5095450;28;20200;-61
2022/09/13 08:58:33;;;;;;;14.73;7.13;;;23.30;99.90;;;;;;5080806;28;20203;-61
2022/09/13 09:01:09;;;;;;;9.40;6.63;;;23.30;99.90;;;;;;5076304;28;20909;-62
2022/09/13 09:03:44;;;;;;;9.73;6.13;;;23.40;99.90;;;;;;5076388;28;20226;-61
2022/09/13 09:06:16;;;;;;;9.00;5.73;;;23.50;99.90;;;;;;5075051;28;20188;-62
2022/09/13 09:09:22;;;;;;;9.13;6.53;;;23.60;99.90;;;;;;5076580;28;20700;-61
2022/09/13 09:12:24;;;;;;;11.77;7.07;;;23.70;99.90;;;;;;5095140;28;20236;-62
2022/09/13 09:14:59;;;;;;;12.20;6.37;;;23.90;99.90;;;;;;5095851;28;20191;-62
2022/09/13 09:17:35;;;;;;;8.13;6.77;;;24.00;99.90;;;;;;5096507;28;20194;-62
2022/09/13 09:20:23;;;;;;;10.83;6.97;;;24.10;99.90;;;;;;5077494;28;20202;-61
2022/09/13 09:22:55;;;;;;;11.00;8.20;;;24.00;99.90;;;;;;5076174;28;20200;-62
2022/09/13 09:25:25;;;;;;;10.97;6.90;;;24.10;99.90;;;;;;5075867;28;20530;-62
2022/09/13 09:27:54;;;;;;;10.50;7.57;;;24.30;99.90;;;;;;5075042;28;20219;-62
2022/09/13 09:30:23;;;;;;;10.67;7.10;;;24.50;99.90;;;;;;5075617;28;20573;-62
2022/09/13 09:33:13;;;;;;;10.50;7.13;;;24.60;99.90;;;;;;5075653;28;20192;-62
2022/09/13 09:35:55;;;;;;;9.57;7.10;;;24.50;99.90;;;;;;5075650;28;20523;-62
2022/09/13 09:38:35;;;;;;;12.77;7.73;;;24.50;99.90;;;;;;5075969;28;20199;-61
2022/09/13 09:41:08;;;;;;;11.10;8.60;;;24.40;99.90;;;;;;5074644;28;20522;-62
2022/09/13 09:43:41;;;;;;;12.13;7.93;;;24.30;99.90;;;;;;5075614;28;20200;-62
2022/09/13 09:46:12;;;;;;;10.53;6.83;;;24.40;99.90;;;;;;5074136;28;20236;-61
2022/09/13 09:48:45;;;;;;;10.97;7.23;;;24.50;99.90;;;;;;5075330;28;20254;-62
2022/09/13 09:51:17;;;;;;;13.40;7.53;;;24.60;99.90;;;;;;5075262;28;20700;-62
2022/09/13 09:53:50;;;;;;;7.20;6.50;;;24.80;99.90;;;;;;5075535;28;20197;-62
2022/09/13 09:56:23;;;;;;;9.57;7.70;;;24.90;99.90;;;;;;5075483;28;20199;-62
2022/09/13 09:58:53;;;;;;;11.67;7.07;;;25.00;99.90;;;;;;5075297;28;20192;-61
2022/09/13 10:01:25;;;;;;;8.10;6.73;;;24.90;99.90;;;;;;5075045;28;20190;-62
2022/09/13 10:04:08;;;;;;;9.90;7.63;;;24.90;99.90;;;;;;5086385;28;20202;-62
2022/09/13 10:06:39;;;;;;;9.73;7.87;;;24.80;99.90;;;;;;5076340;28;20238;-62
2022/09/13 10:09:49;;;;;;;10.50;7.93;;;24.90;99.90;;;;;;5075525;28;20211;-61
2022/09/13 10:16:26;;;;;;;13.37;8.60;;;25.00;99.90;;;;;;5071982;28;20191;-61
2022/09/13 10:18:55;;;;;;;10.20;6.97;;;25.10;99.90;;;;;;5075050;28;20196;-62
2022/09/13 10:21:27;;;;;;;11.10;7.10;;;25.10;99.90;;;;;;5074867;28;20523;-62
2022/09/13 10:24:21;;;;;;;7.63;6.80;;;25.20;99.90;;;;;;5074364;28;20192;-61
2022/09/13 10:26:51;;;;;;;11.67;7.10;;;25.30;99.90;;;;;;5078113;28;20192;-62
2022/09/13 10:29:19;;;;;;;14.50;7.07;;;25.30;99.90;;;;;;5095311;28;20188;-61
2022/09/13 10:31:52;;;;;;;7.77;6.43;;;25.30;99.90;;;;;;5093577;28;20208;-61
2022/09/13 10:34:23;;;;;;;9.20;6.20;;;25.50;99.90;;;;;;5093693;28;20638;-62
2022/09/13 10:36:56;;;;;;;9.67;6.40;;;25.70;99.90;;;;;;5076505;28;20203;-62
2022/09/13 10:39:28;;;;;;;10.00;7.05;;;25.80;99.90;;;;;;5080406;28;20274;-61
2022/09/13 10:41:58;;;;;;;6.83;6.17;;;25.90;99.90;;;;;;5093310;28;20191;-62
2022/09/13 10:44:40;;;;;;;10.05;6.05;;;25.90;99.90;;;;;;5094428;28;20200;-62
2022/09/13 10:47:14;;;;;;;10.65;6.13;;;26.10;99.90;;;;;;5094305;28;20195;-62
2022/09/13 10:49:48;;;;;;;7.50;6.55;;;26.30;99.90;;;;;;5094204;28;20191;-62
2022/09/13 10:52:29;;;;;;;9.18;6.25;;;26.50;99.90;;;;;;5093589;28;20184;-62
2022/09/13 10:55:41;;;;;;;9.77;7.28;;;26.60;99.90;;;;;;5086254;28;20276;-62
2022/09/13 10:58:20;;;;;;;9.55;7.57;;;26.70;99.90;;;;;;5106121;28;20202;-62
2022/09/13 11:01:26;;;;;;;8.98;5.93;;;26.90;99.90;;;;;;5073580;28;20662;-62
2022/09/13 11:04:19;;;;;;;7.75;6.95;;;26.90;99.90;;;;;;5068953;28;20210;-62
2022/09/13 11:06:57;;;;;;;9.32;6.13;;;26.90;99.90;;;;;;5053751;28;20177;-62
2022/09/13 11:09:35;;;;;;;9.43;6.38;;;26.70;99.90;;;;;;5053353;28;20223;-62
2022/09/13 11:12:12;;;;;;;11.00;7.00;;;26.60;99.90;;;;;;5053186;28;20231;-62
2022/09/13 11:14:56;;;;;;;11.07;7.22;;;26.40;99.90;;;;;;5052257;28;20258;-61
2022/09/13 11:17:44;;;;;;;6.35;5.85;;;26.30;99.90;;;;;;5068020;28;20212;-61
2022/09/13 11:20:32;;;;;;;9.90;7.07;;;26.20;99.90;;;;;;5054269;28;20665;-62
2022/09/13 11:23:22;;;;;;;8.48;6.47;;;26.10;99.90;;;;;;5053429;28;20221;-62
2022/09/13 11:26:05;;;;;;;9.20;6.87;;;26.10;99.90;;;;;;5053427;28;20181;-62
2022/09/13 11:28:48;;;;;;;13.53;7.70;;;26.00;99.90;;;;;;5121973;27;20188;-61
2022/09/13 11:31:33;;;;;;;15.87;7.77;;;26.00;99.90;;;;;;5074970;28;20204;-61
2022/09/13 11:34:23;;;;;;;7.70;6.70;;;26.10;99.90;;;;;;5073425;28;20184;-62
2022/09/13 11:37:11;;;;;;;9.00;7.33;;;26.00;99.90;;;;;;5077165;28;20251;-61
2022/09/13 11:39:47;;;;;;;9.43;6.23;;;26.10;99.90;;;;;;5066689;28;20204;-62
2022/09/13 11:42:31;;;;;;;12.00;6.67;;;26.10;99.90;;;;;;5068873;28;20204;-61
2022/09/13 11:45:21;;;;;;;7.53;5.60;;;26.10;99.90;;;;;;5051838;28;20203;-61
2022/09/13 11:48:08;;;;;;;5.60;5.03;;;26.00;99.90;;;;;;5053327;28;20189;-62
2022/09/13 11:50:47;;;;;;;11.77;6.77;;;25.90;99.90;;;;;;5052221;28;20209;-61
2022/09/13 11:53:37;;;;;;;9.10;5.93;;;25.90;99.90;;;;;;5051919;28;20198;-62
2022/09/13 11:56:10;;;;;;;5.90;5.13;;;25.80;99.90;;;;;;5053295;28;20525;-61
2022/09/13 11:58:46;;;;;;;5.63;4.43;;;25.90;99.90;;;;;;5053675;28;20193;-62
2022/09/13 12:01:27;;;;;;;10.03;5.80;;;25.80;99.90;;;;;;5085472;28;20189;-62
2022/09/13 12:04:02;;;;;;;5.90;5.23;;;25.80;99.90;;;;;;5059172;28;20203;-61
2022/09/13 12:06:35;;;;;;;7.77;5.40;;;25.80;99.90;;;;;;5073105;28;20192;-62
2022/09/13 12:09:12;;;;;;;6.53;4.37;;;25.80;99.90;;;;;;5064100;28;20217;-62
2022/09/13 12:11:45;;;;;;;6.67;5.53;;;25.80;99.90;;;;;;5051822;28;20229;-62
2022/09/13 12:14:18;;;;;;;9.47;4.50;;;25.70;99.90;;;;;;5053214;28;20199;-61
2022/09/13 12:16:49;;;;;;;8.40;5.50;;;25.70;99.90;;;;;;5067651;28;20198;-61
2022/09/13 12:19:22;;;;;;;6.17;5.37;;;25.70;99.90;;;;;;5093499;28;20196;-61
2022/09/13 12:21:54;;;;;;;8.63;5.57;;;25.70;99.90;;;;;;5091481;28;20542;-61
2022/09/13 12:24:38;;;;;;;7.40;6.10;;;25.60;99.90;;;;;;5091944;28;20196;-61
2022/09/13 12:27:12;;;;;;;9.60;5.97;;;25.50;99.90;;;;;;5063014;28;20192;-62
2022/09/13 12:29:48;;;;;;;6.30;5.10;;;25.30;99.90;;;;;;5092825;28;20192;-61
2022/09/13 12:32:18;;;;;;;7.23;5.53;;;25.30;99.90;;;;;;5082915;28;20218;-62
2022/09/13 12:34:55;;;;;;;6.37;5.77;;;25.20;99.90;;;;;;5073199;28;20196;-62
2022/09/13 12:37:58;;;;;;;8.30;6.77;;;25.20;99.90;;;;;;5072751;28;20196;-61
2022/09/13 12:40:55;;;;;;;11.47;7.23;;;25.20;99.90;;;;;;5051067;28;20655;-62
2022/09/13 12:43:46;;;;;;;9.53;7.10;;;25.00;99.90;;;;;;5071921;28;20541;-61
2022/09/13 12:46:50;;;;;;;8.30;6.50;;;25.00;99.90;;;;;;5064277;28;20208;-62
2022/09/13 12:49:35;;;;;;;12.43;7.10;;;25.00;99.90;;;;;;5073241;28;20176;-62
2022/09/13 12:52:22;;;;;;;11.70;8.27;;;25.00;99.90;;;;;;5075299;28;20281;-61
2022/09/13 12:55:31;;;;;;;11.07;7.80;;;25.00;99.90;;;;;;5076424;28;20204;-62
2022/09/13 12:58:49;;;;;;;11.43;8.00;;;24.90;99.90;;;;;;5014466;28;20195;-61
2022/09/13 13:01:21;;;;;;;12.10;7.70;;;24.80;99.90;;;;;;5054654;28;20200;-61
2022/09/13 13:03:52;;;;;;;12.53;8.60;;;24.90;99.90;;;;;;5066892;28;20279;-61
2022/09/13 13:11:08;;;;;;;14.47;8.10;;;24.80;99.90;;;;;;5075685;28;20570;-62
2022/09/13 13:13:38;;;;;;;10.80;7.90;;;24.80;99.90;;;;;;5076499;28;20192;-62
2022/09/13 13:16:24;;;;;;;13.17;9.47;;;24.80;99.90;;;;;;5087410;28;20195;-61
2022/09/13 13:18:53;;;;;;;17.03;11.07;;;24.70;99.90;;;;;;5096551;28;20196;-62
2022/09/13 13:21:37;;;;;;;15.73;11.17;;;24.70;99.90;;;;;;5088629;28;20219;-61
2022/09/13 13:24:44;;;;;;;20.63;11.90;;;24.70;99.90;;;;;;5076109;28;20537;-61
2022/09/13 13:27:43;;;;;;;15.03;11.23;;;24.60;99.90;;;;;;5075958;28;20192;-61
2022/09/13 13:30:52;;;;;;;16.80;12.13;;;24.60;99.90;;;;;;5061239;28;20223;-62
2022/09/13 13:33:25;;;;;;;15.67;12.77;;;24.60;99.90;;;;;;5053544;28;20243;-61
2022/09/13 13:35:54;;;;;;;18.63;14.27;;;24.50;99.90;;;;;;5069097;28;20206;-62